sensor_id;sensor_type;location;lat;lon;timestamp;P1;durP1;ratioP1;P2;durP2;ratioP2
75035;SDS011;64247;51.540;5.854;2023-04-22T00:00:19;6.90;;;4.03;;
75035;SDS011;64247;51.540;5.854;2023-04-22T00:02:20;6.97;;;3.80;;
75035;SDS011;64247;51.540;5.854;2023-04-22T00:04:22;5.30;;;3.72;;
75035;SDS011;64247;51.540;5.854;2023-04-22T00:06:23;5.55;;;3.58;;
75035;SDS011;64247;51.540;5.854;2023-04-22T00:08:24;4.65;;;3.63;;
75035;SDS011;64247;51.540;5.854;2023-04-22T00:10:25;6.93;;;4.88;;
75035;SDS011;64247;51.540;5.854;2023-04-22T00:12:27;11.00;;;6.15;;
75035;SDS011;64247;51.540;5.854;2023-04-22T00:14:27;8.63;;;5.60;;
75035;SDS011;64247;51.540;5.854;2023-04-22T00:16:28;7.93;;;5.57;;
75035;SDS011;64247;51.540;5.854;2023-04-22T00:18:29;6.90;;;4.65;;
75035;SDS011;64247;51.540;5.854;2023-04-22T00:20:30;7.07;;;4.63;;
75035;SDS011;64247;51.540;5.854;2023-04-22T00:22:32;6.88;;;4.75;;
75035;SDS011;64247;51.540;5.854;2023-04-22T00:24:33;7.57;;;5.03;;
75035;SDS011;64247;51.540;5.854;2023-04-22T00:26:33;10.35;;;5.07;;
75035;SDS011;64247;51.540;5.854;2023-04-22T00:28:34;6.25;;;4.90;;
75035;SDS011;64247;51.540;5.854;2023-04-22T00:30:35;8.32;;;5.10;;
75035;SDS011;64247;51.540;5.854;2023-04-22T00:32:36;7.38;;;4.45;;
75035;SDS011;64247;51.540;5.854;2023-04-22T00:34:37;5.90;;;4.90;;
75035;SDS011;64247;51.540;5.854;2023-04-22T00:36:39;7.10;;;4.60;;
75035;SDS011;64247;51.540;5.854;2023-04-22T00:38:40;7.53;;;4.70;;
75035;SDS011;64247;51.540;5.854;2023-04-22T00:40:49;8.13;;;4.55;;
75035;SDS011;64247;51.540;5.854;2023-04-22T00:42:49;7.80;;;5.07;;
75035;SDS011;64247;51.540;5.854;2023-04-22T00:44:50;8.38;;;5.28;;
75035;SDS011;64247;51.540;5.854;2023-04-22T00:46:52;7.00;;;4.85;;
75035;SDS011;64247;51.540;5.854;2023-04-22T00:48:54;9.02;;;5.45;;
75035;SDS011;64247;51.540;5.854;2023-04-22T00:50:57;7.47;;;5.30;;
75035;SDS011;64247;51.540;5.854;2023-04-22T00:52:58;7.32;;;5.22;;
75035;SDS011;64247;51.540;5.854;2023-04-22T00:54:59;6.63;;;5.05;;
75035;SDS011;64247;51.540;5.854;2023-04-22T00:57:00;6.88;;;5.07;;
75035;SDS011;64247;51.540;5.854;2023-04-22T00:59:04;8.50;;;5.22;;
75035;SDS011;64247;51.540;5.854;2023-04-22T01:01:06;8.23;;;5.13;;
75035;SDS011;64247;51.540;5.854;2023-04-22T01:03:07;8.07;;;5.07;;
75035;SDS011;64247;51.540;5.854;2023-04-22T01:05:09;7.65;;;5.05;;
75035;SDS011;64247;51.540;5.854;2023-04-22T01:07:11;8.63;;;5.60;;
75035;SDS011;64247;51.540;5.854;2023-04-22T01:09:12;8.00;;;5.07;;
75035;SDS011;64247;51.540;5.854;2023-04-22T01:11:13;7.53;;;5.03;;
75035;SDS011;64247;51.540;5.854;2023-04-22T01:13:14;6.78;;;4.68;;
75035;SDS011;64247;51.540;5.854;2023-04-22T01:15:15;7.28;;;5.05;;
75035;SDS011;64247;51.540;5.854;2023-04-22T01:17:16;7.95;;;5.15;;
75035;SDS011;64247;51.540;5.854;2023-04-22T01:19:18;8.32;;;4.85;;
75035;SDS011;64247;51.540;5.854;2023-04-22T01:21:19;7.15;;;4.60;;
75035;SDS011;64247;51.540;5.854;2023-04-22T01:23:21;7.60;;;4.80;;
75035;SDS011;64247;51.540;5.854;2023-04-22T01:25:23;6.60;;;4.80;;
75035;SDS011;64247;51.540;5.854;2023-04-22T01:27:25;6.90;;;4.65;;
75035;SDS011;64247;51.540;5.854;2023-04-22T01:29:26;9.13;;;5.88;;
75035;SDS011;64247;51.540;5.854;2023-04-22T01:31:28;8.70;;;4.95;;
75035;SDS011;64247;51.540;5.854;2023-04-22T01:33:30;8.70;;;5.07;;
75035;SDS011;64247;51.540;5.854;2023-04-22T01:35:32;7.85;;;4.97;;
75035;SDS011;64247;51.540;5.854;2023-04-22T01:37:36;7.38;;;5.68;;
75035;SDS011;64247;51.540;5.854;2023-04-22T01:39:38;9.25;;;6.13;;
75035;SDS011;64247;51.540;5.854;2023-04-22T01:41:39;9.82;;;5.93;;
75035;SDS011;64247;51.540;5.854;2023-04-22T01:43:41;7.47;;;5.28;;
75035;SDS011;64247;51.540;5.854;2023-04-22T01:45:43;8.73;;;6.13;;
75035;SDS011;64247;51.540;5.854;2023-04-22T01:47:44;7.85;;;6.03;;
75035;SDS011;64247;51.540;5.854;2023-04-22T01:49:45;10.77;;;6.55;;
75035;SDS011;64247;51.540;5.854;2023-04-22T01:51:46;12.02;;;6.50;;
75035;SDS011;64247;51.540;5.854;2023-04-22T01:53:47;7.82;;;6.03;;
75035;SDS011;64247;51.540;5.854;2023-04-22T01:55:48;6.53;;;5.40;;
75035;SDS011;64247;51.540;5.854;2023-04-22T01:57:49;8.85;;;6.43;;
75035;SDS011;64247;51.540;5.854;2023-04-22T01:59:51;8.55;;;5.47;;
75035;SDS011;64247;51.540;5.854;2023-04-22T02:01:52;7.97;;;5.78;;
75035;SDS011;64247;51.540;5.854;2023-04-22T02:03:53;8.10;;;6.15;;
75035;SDS011;64247;51.540;5.854;2023-04-22T02:05:54;7.07;;;5.20;;
75035;SDS011;64247;51.540;5.854;2023-04-22T02:07:55;9.93;;;6.40;;
75035;SDS011;64247;51.540;5.854;2023-04-22T02:09:56;11.38;;;6.47;;
75035;SDS011;64247;51.540;5.854;2023-04-22T02:11:57;9.57;;;6.25;;
75035;SDS011;64247;51.540;5.854;2023-04-22T02:13:58;13.15;;;6.75;;
75035;SDS011;64247;51.540;5.854;2023-04-22T02:15:58;11.07;;;6.40;;
75035;SDS011;64247;51.540;5.854;2023-04-22T02:17:59;12.88;;;7.00;;
75035;SDS011;64247;51.540;5.854;2023-04-22T02:20:01;11.07;;;7.30;;
75035;SDS011;64247;51.540;5.854;2023-04-22T02:22:04;11.43;;;8.20;;
75035;SDS011;64247;51.540;5.854;2023-04-22T02:24:05;10.90;;;6.95;;
75035;SDS011;64247;51.540;5.854;2023-04-22T02:26:06;10.88;;;6.50;;
75035;SDS011;64247;51.540;5.854;2023-04-22T02:28:09;9.07;;;6.85;;
75035;SDS011;64247;51.540;5.854;2023-04-22T02:30:10;10.95;;;7.25;;
75035;SDS011;64247;51.540;5.854;2023-04-22T02:32:11;11.68;;;8.10;;
75035;SDS011;64247;51.540;5.854;2023-04-22T02:34:12;12.75;;;7.28;;
75035;SDS011;64247;51.540;5.854;2023-04-22T02:36:13;12.32;;;7.38;;
75035;SDS011;64247;51.540;5.854;2023-04-22T02:38:13;10.35;;;6.80;;
75035;SDS011;64247;51.540;5.854;2023-04-22T02:40:16;12.80;;;6.82;;
75035;SDS011;64247;51.540;5.854;2023-04-22T02:42:17;10.10;;;6.53;;
75035;SDS011;64247;51.540;5.854;2023-04-22T02:44:17;13.50;;;7.88;;
75035;SDS011;64247;51.540;5.854;2023-04-22T02:46:18;11.95;;;6.57;;
75035;SDS011;64247;51.540;5.854;2023-04-22T02:48:19;18.35;;;9.07;;
75035;SDS011;64247;51.540;5.854;2023-04-22T02:50:20;14.32;;;8.18;;
75035;SDS011;64247;51.540;5.854;2023-04-22T02:52:21;14.57;;;8.13;;
75035;SDS011;64247;51.540;5.854;2023-04-22T02:54:22;8.95;;;5.78;;
75035;SDS011;64247;51.540;5.854;2023-04-22T02:56:23;10.52;;;6.35;;
75035;SDS011;64247;51.540;5.854;2023-04-22T02:58:24;16.23;;;9.10;;
75035;SDS011;64247;51.540;5.854;2023-04-22T03:00:25;9.35;;;6.68;;
75035;SDS011;64247;51.540;5.854;2023-04-22T03:02:27;13.23;;;7.70;;
75035;SDS011;64247;51.540;5.854;2023-04-22T03:04:47;10.75;;;6.47;;
75035;SDS011;64247;51.540;5.854;2023-04-22T03:06:48;15.35;;;8.73;;
75035;SDS011;64247;51.540;5.854;2023-04-22T03:08:49;13.05;;;7.85;;
75035;SDS011;64247;51.540;5.854;2023-04-22T03:10:50;15.05;;;7.55;;
75035;SDS011;64247;51.540;5.854;2023-04-22T03:12:51;12.20;;;8.45;;
75035;SDS011;64247;51.540;5.854;2023-04-22T03:14:53;9.65;;;6.57;;
75035;SDS011;64247;51.540;5.854;2023-04-22T03:16:57;18.45;;;10.95;;
75035;SDS011;64247;51.540;5.854;2023-04-22T03:18:58;14.32;;;9.30;;
75035;SDS011;64247;51.540;5.854;2023-04-22T03:20:58;16.17;;;10.63;;
75035;SDS011;64247;51.540;5.854;2023-04-22T03:23:00;17.25;;;10.18;;
75035;SDS011;64247;51.540;5.854;2023-04-22T03:25:01;18.88;;;9.32;;
75035;SDS011;64247;51.540;5.854;2023-04-22T03:27:03;20.75;;;11.77;;
75035;SDS011;64247;51.540;5.854;2023-04-22T03:29:05;18.20;;;10.77;;
75035;SDS011;64247;51.540;5.854;2023-04-22T03:31:06;17.38;;;10.10;;
75035;SDS011;64247;51.540;5.854;2023-04-22T03:33:07;17.52;;;10.00;;
75035;SDS011;64247;51.540;5.854;2023-04-22T03:35:22;17.20;;;10.60;;
75035;SDS011;64247;51.540;5.854;2023-04-22T03:37:24;16.27;;;10.75;;
75035;SDS011;64247;51.540;5.854;2023-04-22T03:39:25;19.77;;;10.82;;
75035;SDS011;64247;51.540;5.854;2023-04-22T03:41:26;23.13;;;11.57;;
75035;SDS011;64247;51.540;5.854;2023-04-22T03:43:27;19.85;;;11.73;;
75035;SDS011;64247;51.540;5.854;2023-04-22T03:45:41;19.48;;;11.50;;
75035;SDS011;64247;51.540;5.854;2023-04-22T03:47:49;20.15;;;11.43;;
75035;SDS011;64247;51.540;5.854;2023-04-22T03:50:04;21.17;;;12.18;;
75035;SDS011;64247;51.540;5.854;2023-04-22T03:52:07;19.85;;;11.30;;
75035;SDS011;64247;51.540;5.854;2023-04-22T03:54:10;20.50;;;11.52;;
75035;SDS011;64247;51.540;5.854;2023-04-22T03:56:18;22.60;;;12.13;;
75035;SDS011;64247;51.540;5.854;2023-04-22T03:58:20;20.25;;;11.48;;
75035;SDS011;64247;51.540;5.854;2023-04-22T04:00:22;24.25;;;11.05;;
75035;SDS011;64247;51.540;5.854;2023-04-22T04:02:35;20.02;;;12.50;;
75035;SDS011;64247;51.540;5.854;2023-04-22T04:04:36;17.98;;;11.60;;
75035;SDS011;64247;51.540;5.854;2023-04-22T04:06:38;18.73;;;9.48;;
75035;SDS011;64247;51.540;5.854;2023-04-22T04:08:40;24.27;;;11.57;;
75035;SDS011;64247;51.540;5.854;2023-04-22T04:10:41;14.38;;;7.28;;
75035;SDS011;64247;51.540;5.854;2023-04-22T04:12:42;18.15;;;10.95;;
75035;SDS011;64247;51.540;5.854;2023-04-22T04:14:43;18.52;;;9.85;;
75035;SDS011;64247;51.540;5.854;2023-04-22T04:16:47;17.33;;;10.93;;
75035;SDS011;64247;51.540;5.854;2023-04-22T04:18:57;18.70;;;9.55;;
75035;SDS011;64247;51.540;5.854;2023-04-22T04:20:59;18.55;;;11.07;;
75035;SDS011;64247;51.540;5.854;2023-04-22T04:23:04;20.35;;;11.13;;
75035;SDS011;64247;51.540;5.854;2023-04-22T04:25:05;21.63;;;11.85;;
75035;SDS011;64247;51.540;5.854;2023-04-22T04:27:11;22.20;;;11.25;;
75035;SDS011;64247;51.540;5.854;2023-04-22T04:29:20;22.50;;;11.88;;
75035;SDS011;64247;51.540;5.854;2023-04-22T04:31:35;21.77;;;10.60;;
75035;SDS011;64247;51.540;5.854;2023-04-22T04:33:37;18.42;;;11.75;;
75035;SDS011;64247;51.540;5.854;2023-04-22T04:35:38;22.10;;;11.45;;
75035;SDS011;64247;51.540;5.854;2023-04-22T04:37:42;20.63;;;11.48;;
75035;SDS011;64247;51.540;5.854;2023-04-22T04:39:43;18.98;;;9.75;;
75035;SDS011;64247;51.540;5.854;2023-04-22T04:41:45;19.10;;;11.48;;
75035;SDS011;64247;51.540;5.854;2023-04-22T04:43:48;22.35;;;12.95;;
75035;SDS011;64247;51.540;5.854;2023-04-22T04:45:58;20.42;;;11.15;;
75035;SDS011;64247;51.540;5.854;2023-04-22T04:48:05;21.48;;;12.18;;
75035;SDS011;64247;51.540;5.854;2023-04-22T04:50:10;21.60;;;12.38;;
75035;SDS011;64247;51.540;5.854;2023-04-22T04:52:12;23.77;;;13.00;;
75035;SDS011;64247;51.540;5.854;2023-04-22T04:54:13;22.55;;;11.93;;
75035;SDS011;64247;51.540;5.854;2023-04-22T04:56:15;23.95;;;12.27;;
75035;SDS011;64247;51.540;5.854;2023-04-22T04:58:17;22.75;;;13.40;;
75035;SDS011;64247;51.540;5.854;2023-04-22T05:00:19;27.80;;;13.73;;
75035;SDS011;64247;51.540;5.854;2023-04-22T05:02:20;22.52;;;12.77;;
75035;SDS011;64247;51.540;5.854;2023-04-22T05:04:21;24.60;;;13.82;;
75035;SDS011;64247;51.540;5.854;2023-04-22T05:06:22;24.88;;;13.35;;
75035;SDS011;64247;51.540;5.854;2023-04-22T05:08:28;23.95;;;13.95;;
75035;SDS011;64247;51.540;5.854;2023-04-22T05:10:35;24.10;;;14.30;;
75035;SDS011;64247;51.540;5.854;2023-04-22T05:12:37;26.50;;;15.52;;
75035;SDS011;64247;51.540;5.854;2023-04-22T05:14:41;24.83;;;14.63;;
75035;SDS011;64247;51.540;5.854;2023-04-22T05:16:42;31.13;;;15.63;;
75035;SDS011;64247;51.540;5.854;2023-04-22T05:18:43;27.20;;;15.65;;
75035;SDS011;64247;51.540;5.854;2023-04-22T05:20:46;27.40;;;15.75;;
75035;SDS011;64247;51.540;5.854;2023-04-22T05:22:48;26.08;;;14.82;;
75035;SDS011;64247;51.540;5.854;2023-04-22T05:24:49;32.90;;;16.55;;
75035;SDS011;64247;51.540;5.854;2023-04-22T05:26:50;32.42;;;16.33;;
75035;SDS011;64247;51.540;5.854;2023-04-22T05:28:53;32.90;;;16.80;;
75035;SDS011;64247;51.540;5.854;2023-04-22T05:30:55;29.38;;;16.08;;
75035;SDS011;64247;51.540;5.854;2023-04-22T05:32:59;27.73;;;14.88;;
75035;SDS011;64247;51.540;5.854;2023-04-22T05:35:00;27.05;;;15.52;;
75035;SDS011;64247;51.540;5.854;2023-04-22T05:37:01;28.83;;;15.00;;
75035;SDS011;64247;51.540;5.854;2023-04-22T05:39:04;28.48;;;16.08;;
75035;SDS011;64247;51.540;5.854;2023-04-22T05:41:06;27.30;;;16.58;;
75035;SDS011;64247;51.540;5.854;2023-04-22T05:43:09;29.30;;;15.73;;
75035;SDS011;64247;51.540;5.854;2023-04-22T05:45:12;27.92;;;15.35;;
75035;SDS011;64247;51.540;5.854;2023-04-22T05:47:14;29.42;;;16.55;;
75035;SDS011;64247;51.540;5.854;2023-04-22T05:49:16;28.95;;;15.30;;
75035;SDS011;64247;51.540;5.854;2023-04-22T05:51:35;29.80;;;15.50;;
75035;SDS011;64247;51.540;5.854;2023-04-22T05:53:36;26.90;;;15.25;;
75035;SDS011;64247;51.540;5.854;2023-04-22T05:55:38;27.92;;;15.98;;
75035;SDS011;64247;51.540;5.854;2023-04-22T05:57:41;30.10;;;15.70;;
75035;SDS011;64247;51.540;5.854;2023-04-22T05:59:54;28.92;;;14.75;;
75035;SDS011;64247;51.540;5.854;2023-04-22T06:01:56;28.40;;;16.58;;
75035;SDS011;64247;51.540;5.854;2023-04-22T06:03:58;27.58;;;15.85;;
75035;SDS011;64247;51.540;5.854;2023-04-22T06:05:59;27.65;;;16.40;;
75035;SDS011;64247;51.540;5.854;2023-04-22T06:08:00;27.42;;;15.90;;
75035;SDS011;64247;51.540;5.854;2023-04-22T06:10:01;28.52;;;16.30;;
75035;SDS011;64247;51.540;5.854;2023-04-22T06:12:03;26.02;;;14.07;;
75035;SDS011;64247;51.540;5.854;2023-04-22T06:14:04;29.40;;;15.98;;
75035;SDS011;64247;51.540;5.854;2023-04-22T06:16:05;30.08;;;15.90;;
75035;SDS011;64247;51.540;5.854;2023-04-22T06:18:07;28.13;;;15.38;;
75035;SDS011;64247;51.540;5.854;2023-04-22T06:20:08;26.50;;;16.33;;
75035;SDS011;64247;51.540;5.854;2023-04-22T06:22:11;26.55;;;15.48;;
75035;SDS011;64247;51.540;5.854;2023-04-22T06:24:14;22.98;;;14.23;;
75035;SDS011;64247;51.540;5.854;2023-04-22T06:26:16;19.77;;;12.45;;
75035;SDS011;64247;51.540;5.854;2023-04-22T06:28:17;21.75;;;12.68;;
75035;SDS011;64247;51.540;5.854;2023-04-22T06:30:19;21.90;;;13.80;;
75035;SDS011;64247;51.540;5.854;2023-04-22T06:32:20;20.52;;;13.10;;
75035;SDS011;64247;51.540;5.854;2023-04-22T06:34:21;19.10;;;11.98;;
75035;SDS011;64247;51.540;5.854;2023-04-22T06:36:24;17.63;;;10.13;;
75035;SDS011;64247;51.540;5.854;2023-04-22T06:38:32;18.67;;;11.48;;
75035;SDS011;64247;51.540;5.854;2023-04-22T06:40:59;20.52;;;12.20;;
75035;SDS011;64247;51.540;5.854;2023-04-22T06:43:04;15.73;;;9.75;;
75035;SDS011;64247;51.540;5.854;2023-04-22T06:45:21;15.48;;;8.88;;
75035;SDS011;64247;51.540;5.854;2023-04-22T06:49:44;18.73;;;10.55;;
75035;SDS011;64247;51.540;5.854;2023-04-22T06:51:54;14.35;;;9.93;;
75035;SDS011;64247;51.540;5.854;2023-04-22T06:53:55;14.65;;;8.88;;
75035;SDS011;64247;51.540;5.854;2023-04-22T06:55:57;14.45;;;9.32;;
75035;SDS011;64247;51.540;5.854;2023-04-22T06:57:58;18.23;;;11.50;;
75035;SDS011;64247;51.540;5.854;2023-04-22T06:59:59;17.13;;;10.23;;
75035;SDS011;64247;51.540;5.854;2023-04-22T07:02:01;13.48;;;9.10;;
75035;SDS011;64247;51.540;5.854;2023-04-22T07:04:04;15.18;;;10.05;;
75035;SDS011;64247;51.540;5.854;2023-04-22T07:06:05;15.25;;;9.52;;
75035;SDS011;64247;51.540;5.854;2023-04-22T07:08:07;12.88;;;8.18;;
75035;SDS011;64247;51.540;5.854;2023-04-22T07:10:08;14.57;;;9.63;;
75035;SDS011;64247;51.540;5.854;2023-04-22T07:12:20;14.75;;;9.40;;
75035;SDS011;64247;51.540;5.854;2023-04-22T07:14:21;15.05;;;7.93;;
75035;SDS011;64247;51.540;5.854;2023-04-22T07:16:21;11.32;;;6.93;;
75035;SDS011;64247;51.540;5.854;2023-04-22T07:18:22;18.90;;;9.60;;
75035;SDS011;64247;51.540;5.854;2023-04-22T07:20:23;15.35;;;10.27;;
75035;SDS011;64247;51.540;5.854;2023-04-22T07:22:24;13.73;;;8.35;;
75035;SDS011;64247;51.540;5.854;2023-04-22T07:24:25;12.15;;;8.25;;
75035;SDS011;64247;51.540;5.854;2023-04-22T07:26:26;10.05;;;7.20;;
75035;SDS011;64247;51.540;5.854;2023-04-22T07:28:27;11.07;;;7.95;;
75035;SDS011;64247;51.540;5.854;2023-04-22T07:30:28;14.13;;;8.48;;
75035;SDS011;64247;51.540;5.854;2023-04-22T07:32:29;12.30;;;7.15;;
75035;SDS011;64247;51.540;5.854;2023-04-22T07:34:30;10.40;;;6.15;;
75035;SDS011;64247;51.540;5.854;2023-04-22T07:36:30;10.32;;;6.97;;
75035;SDS011;64247;51.540;5.854;2023-04-22T07:38:32;12.00;;;7.95;;
75035;SDS011;64247;51.540;5.854;2023-04-22T07:40:33;9.07;;;5.90;;
75035;SDS011;64247;51.540;5.854;2023-04-22T07:42:34;10.07;;;6.47;;
75035;SDS011;64247;51.540;5.854;2023-04-22T07:44:37;7.13;;;5.38;;
75035;SDS011;64247;51.540;5.854;2023-04-22T07:46:38;9.07;;;6.30;;
75035;SDS011;64247;51.540;5.854;2023-04-22T07:48:39;10.40;;;5.97;;
75035;SDS011;64247;51.540;5.854;2023-04-22T07:50:40;10.55;;;6.20;;
75035;SDS011;64247;51.540;5.854;2023-04-22T07:52:41;11.27;;;7.30;;
75035;SDS011;64247;51.540;5.854;2023-04-22T07:54:41;11.32;;;7.88;;
75035;SDS011;64247;51.540;5.854;2023-04-22T07:56:42;10.93;;;7.38;;
75035;SDS011;64247;51.540;5.854;2023-04-22T07:58:43;11.02;;;7.45;;
75035;SDS011;64247;51.540;5.854;2023-04-22T08:00:44;11.02;;;7.45;;
75035;SDS011;64247;51.540;5.854;2023-04-22T08:02:45;13.73;;;7.88;;
75035;SDS011;64247;51.540;5.854;2023-04-22T08:04:46;12.05;;;7.75;;
75035;SDS011;64247;51.540;5.854;2023-04-22T08:06:47;13.43;;;8.05;;
75035;SDS011;64247;51.540;5.854;2023-04-22T08:08:48;13.55;;;6.40;;
75035;SDS011;64247;51.540;5.854;2023-04-22T08:10:49;10.35;;;8.13;;
75035;SDS011;64247;51.540;5.854;2023-04-22T08:12:49;12.20;;;7.40;;
75035;SDS011;64247;51.540;5.854;2023-04-22T08:14:50;9.98;;;7.43;;
75035;SDS011;64247;51.540;5.854;2023-04-22T08:16:51;10.02;;;6.50;;
75035;SDS011;64247;51.540;5.854;2023-04-22T08:18:52;10.32;;;7.10;;
75035;SDS011;64247;51.540;5.854;2023-04-22T08:20:53;11.27;;;6.38;;
75035;SDS011;64247;51.540;5.854;2023-04-22T08:22:55;8.82;;;6.40;;
75035;SDS011;64247;51.540;5.854;2023-04-22T08:24:59;11.80;;;7.45;;
75035;SDS011;64247;51.540;5.854;2023-04-22T08:27:00;9.73;;;6.95;;
75035;SDS011;64247;51.540;5.854;2023-04-22T08:29:02;10.25;;;6.53;;
75035;SDS011;64247;51.540;5.854;2023-04-22T08:31:03;8.52;;;5.72;;
75035;SDS011;64247;51.540;5.854;2023-04-22T08:33:05;8.15;;;5.78;;
75035;SDS011;64247;51.540;5.854;2023-04-22T08:35:06;6.60;;;4.93;;
75035;SDS011;64247;51.540;5.854;2023-04-22T08:37:08;8.25;;;6.00;;
75035;SDS011;64247;51.540;5.854;2023-04-22T08:39:09;9.07;;;5.90;;
75035;SDS011;64247;51.540;5.854;2023-04-22T08:41:11;7.60;;;5.95;;
75035;SDS011;64247;51.540;5.854;2023-04-22T08:43:12;7.72;;;5.50;;
75035;SDS011;64247;51.540;5.854;2023-04-22T08:45:14;8.35;;;6.07;;
75035;SDS011;64247;51.540;5.854;2023-04-22T08:47:16;5.45;;;4.32;;
75035;SDS011;64247;51.540;5.854;2023-04-22T08:49:19;6.05;;;4.78;;
75035;SDS011;64247;51.540;5.854;2023-04-22T08:51:24;8.80;;;6.20;;
75035;SDS011;64247;51.540;5.854;2023-04-22T08:53:26;7.28;;;4.47;;
75035;SDS011;64247;51.540;5.854;2023-04-22T08:55:26;7.20;;;5.25;;
75035;SDS011;64247;51.540;5.854;2023-04-22T08:57:28;8.40;;;5.43;;
75035;SDS011;64247;51.540;5.854;2023-04-22T08:59:30;4.75;;;3.45;;
75035;SDS011;64247;51.540;5.854;2023-04-22T09:01:33;5.63;;;4.20;;
75035;SDS011;64247;51.540;5.854;2023-04-22T09:03:35;7.07;;;3.95;;
75035;SDS011;64247;51.540;5.854;2023-04-22T09:05:39;8.27;;;5.30;;
75035;SDS011;64247;51.540;5.854;2023-04-22T09:07:41;5.22;;;4.20;;
75035;SDS011;64247;51.540;5.854;2023-04-22T09:09:44;5.88;;;4.40;;
75035;SDS011;64247;51.540;5.854;2023-04-22T09:11:45;9.70;;;5.15;;
75035;SDS011;64247;51.540;5.854;2023-04-22T09:13:46;6.70;;;4.97;;
75035;SDS011;64247;51.540;5.854;2023-04-22T09:15:47;7.05;;;5.40;;
75035;SDS011;64247;51.540;5.854;2023-04-22T09:17:49;6.40;;;4.50;;
75035;SDS011;64247;51.540;5.854;2023-04-22T09:19:56;5.80;;;4.90;;
75035;SDS011;64247;51.540;5.854;2023-04-22T09:21:59;7.38;;;4.70;;
75035;SDS011;64247;51.540;5.854;2023-04-22T09:24:00;7.55;;;5.80;;
75035;SDS011;64247;51.540;5.854;2023-04-22T09:26:02;7.78;;;4.70;;
75035;SDS011;64247;51.540;5.854;2023-04-22T09:28:03;6.80;;;5.28;;
75035;SDS011;64247;51.540;5.854;2023-04-22T09:30:06;7.85;;;3.85;;
75035;SDS011;64247;51.540;5.854;2023-04-22T09:32:09;4.90;;;3.17;;
75035;SDS011;64247;51.540;5.854;2023-04-22T09:34:11;5.03;;;4.53;;
75035;SDS011;64247;51.540;5.854;2023-04-22T09:36:12;6.72;;;3.53;;
75035;SDS011;64247;51.540;5.854;2023-04-22T09:38:13;4.13;;;3.72;;
75035;SDS011;64247;51.540;5.854;2023-04-22T09:40:14;4.88;;;3.45;;
75035;SDS011;64247;51.540;5.854;2023-04-22T09:42:20;3.92;;;3.40;;
75035;SDS011;64247;51.540;5.854;2023-04-22T09:44:21;7.75;;;4.20;;
75035;SDS011;64247;51.540;5.854;2023-04-22T09:46:27;5.10;;;4.60;;
75035;SDS011;64247;51.540;5.854;2023-04-22T09:48:30;4.03;;;3.60;;
75035;SDS011;64247;51.540;5.854;2023-04-22T09:50:31;6.25;;;3.75;;
75035;SDS011;64247;51.540;5.854;2023-04-22T09:52:32;5.18;;;4.20;;
75035;SDS011;64247;51.540;5.854;2023-04-22T09:54:33;8.18;;;4.47;;
75035;SDS011;64247;51.540;5.854;2023-04-22T09:59:22;5.45;;;4.47;;
75035;SDS011;64247;51.540;5.854;2023-04-22T10:01:35;6.15;;;4.50;;
75035;SDS011;64247;51.540;5.854;2023-04-22T10:03:40;6.97;;;3.92;;
75035;SDS011;64247;51.540;5.854;2023-04-22T10:05:41;5.63;;;3.92;;
75035;SDS011;64247;51.540;5.854;2023-04-22T10:07:44;4.78;;;4.30;;
75035;SDS011;64247;51.540;5.854;2023-04-22T10:09:45;5.30;;;4.80;;
75035;SDS011;64247;51.540;5.854;2023-04-22T10:11:47;6.35;;;4.68;;
75035;SDS011;64247;51.540;5.854;2023-04-22T10:13:53;4.60;;;3.80;;
75035;SDS011;64247;51.540;5.854;2023-04-22T10:15:54;6.10;;;5.05;;
75035;SDS011;64247;51.540;5.854;2023-04-22T10:17:57;5.30;;;4.05;;
75035;SDS011;64247;51.540;5.854;2023-04-22T10:20:00;7.38;;;4.80;;
75035;SDS011;64247;51.540;5.854;2023-04-22T10:22:05;3.78;;;3.08;;
75035;SDS011;64247;51.540;5.854;2023-04-22T10:24:17;5.43;;;4.28;;
75035;SDS011;64247;51.540;5.854;2023-04-22T10:28:57;6.30;;;4.47;;
75035;SDS011;64247;51.540;5.854;2023-04-22T10:30:58;5.13;;;4.10;;
75035;SDS011;64247;51.540;5.854;2023-04-22T10:38:14;6.05;;;5.45;;
75035;SDS011;64247;51.540;5.854;2023-04-22T10:40:16;5.65;;;4.43;;
75035;SDS011;64247;51.540;5.854;2023-04-22T10:42:18;5.30;;;4.80;;
75035;SDS011;64247;51.540;5.854;2023-04-22T10:44:21;6.70;;;5.10;;
75035;SDS011;64247;51.540;5.854;2023-04-22T10:48:58;6.15;;;4.55;;
75035;SDS011;64247;51.540;5.854;2023-04-22T10:51:12;4.68;;;4.00;;
75035;SDS011;64247;51.540;5.854;2023-04-22T10:57:13;5.85;;;4.25;;
75035;SDS011;64247;51.540;5.854;2023-04-22T10:59:21;5.05;;;4.22;;
75035;SDS011;64247;51.540;5.854;2023-04-22T11:01:22;5.43;;;4.93;;
75035;SDS011;64247;51.540;5.854;2023-04-22T11:03:27;7.10;;;5.95;;
75035;SDS011;64247;51.540;5.854;2023-04-22T11:05:30;6.22;;;4.75;;
75035;SDS011;64247;51.540;5.854;2023-04-22T11:07:32;7.10;;;5.82;;
75035;SDS011;64247;51.540;5.854;2023-04-22T11:09:38;4.40;;;4.03;;
75035;SDS011;64247;51.540;5.854;2023-04-22T11:12:02;5.47;;;4.97;;
75035;SDS011;64247;51.540;5.854;2023-04-22T11:14:56;5.53;;;5.03;;
75035;SDS011;64247;51.540;5.854;2023-04-22T11:16:58;6.55;;;5.10;;
75035;SDS011;64247;51.540;5.854;2023-04-22T11:18:59;6.68;;;5.28;;
75035;SDS011;64247;51.540;5.854;2023-04-22T11:21:06;7.03;;;5.43;;
75035;SDS011;64247;51.540;5.854;2023-04-22T11:23:08;6.97;;;4.45;;
75035;SDS011;64247;51.540;5.854;2023-04-22T11:25:09;4.45;;;3.22;;
75035;SDS011;64247;51.540;5.854;2023-04-22T11:27:10;7.60;;;4.88;;
75035;SDS011;64247;51.540;5.854;2023-04-22T11:29:11;6.30;;;5.68;;
75035;SDS011;64247;51.540;5.854;2023-04-22T11:31:12;5.20;;;4.80;;
75035;SDS011;64247;51.540;5.854;2023-04-22T11:33:14;6.00;;;5.45;;
75035;SDS011;64247;51.540;5.854;2023-04-22T11:35:17;6.38;;;4.82;;
75035;SDS011;64247;51.540;5.854;2023-04-22T11:37:23;7.70;;;5.63;;
75035;SDS011;64247;51.540;5.854;2023-04-22T11:39:33;5.53;;;4.93;;
75035;SDS011;64247;51.540;5.854;2023-04-22T11:41:35;7.15;;;5.05;;
75035;SDS011;64247;51.540;5.854;2023-04-22T11:43:47;4.70;;;4.20;;
75035;SDS011;64247;51.540;5.854;2023-04-22T11:45:48;7.55;;;5.10;;
75035;SDS011;64247;51.540;5.854;2023-04-22T11:47:49;6.10;;;4.95;;
75035;SDS011;64247;51.540;5.854;2023-04-22T11:49:58;7.25;;;5.88;;
75035;SDS011;64247;51.540;5.854;2023-04-22T11:52:04;7.00;;;4.90;;
75035;SDS011;64247;51.540;5.854;2023-04-22T11:54:05;5.13;;;4.20;;
75035;SDS011;64247;51.540;5.854;2023-04-22T11:56:06;6.38;;;4.40;;
75035;SDS011;64247;51.540;5.854;2023-04-22T11:58:07;5.20;;;4.13;;
75035;SDS011;64247;51.540;5.854;2023-04-22T12:00:17;5.70;;;4.30;;
75035;SDS011;64247;51.540;5.854;2023-04-22T12:02:18;6.82;;;3.67;;
75035;SDS011;64247;51.540;5.854;2023-04-22T12:04:21;5.47;;;4.30;;
75035;SDS011;64247;51.540;5.854;2023-04-22T12:06:22;4.93;;;4.20;;
75035;SDS011;64247;51.540;5.854;2023-04-22T12:08:34;5.25;;;3.90;;
75035;SDS011;64247;51.540;5.854;2023-04-22T12:10:46;8.32;;;4.63;;
75035;SDS011;64247;51.540;5.854;2023-04-22T12:12:53;9.18;;;4.32;;
75035;SDS011;64247;51.540;5.854;2023-04-22T12:14:54;4.47;;;4.07;;
75035;SDS011;64247;51.540;5.854;2023-04-22T12:16:57;4.88;;;4.38;;
75035;SDS011;64247;51.540;5.854;2023-04-22T12:18:58;4.50;;;3.88;;
75035;SDS011;64247;51.540;5.854;2023-04-22T12:20:59;5.18;;;4.28;;
75035;SDS011;64247;51.540;5.854;2023-04-22T12:23:29;4.68;;;4.25;;
75035;SDS011;64247;51.540;5.854;2023-04-22T12:25:43;7.35;;;4.63;;
75035;SDS011;64247;51.540;5.854;2023-04-22T12:27:44;4.40;;;4.00;;
75035;SDS011;64247;51.540;5.854;2023-04-22T12:29:55;7.25;;;4.50;;
75035;SDS011;64247;51.540;5.854;2023-04-22T12:31:57;6.13;;;3.60;;